createdAt,value
2023-02-02T00:01:52.801Z,97985.53
2023-02-02T00:04:22.578Z,97979.19
2023-02-02T00:06:50.751Z,97981.16
2023-02-02T00:09:20.538Z,97965.28
2023-02-02T00:11:50.972Z,97948.56
2023-02-02T00:14:18.997Z,97961.47
2023-02-02T00:16:47.953Z,97944.56
2023-02-02T00:19:16.154Z,97947.69
2023-02-02T00:21:44.503Z,97950.34
2023-02-02T00:24:13.772Z,97940.31
2023-02-02T00:26:44.487Z,97952.59
2023-02-02T00:29:16.166Z,97938.16
2023-02-02T00:31:43.666Z,97952.94
2023-02-02T00:34:12.183Z,97950.19
2023-02-02T00:36:39.927Z,97945.63
2023-02-02T00:39:07.807Z,97944.13
2023-02-02T00:41:35.248Z,97955.91
2023-02-02T00:44:20.481Z,97957.34
2023-02-02T00:46:49.287Z,97967.13
2023-02-02T00:49:16.787Z,97968.81
2023-02-02T00:51:44.250Z,97965.00
2023-02-02T00:54:11.820Z,97970.16
2023-02-02T00:56:39.289Z,97959.84
2023-02-02T00:59:06.749Z,97956.38
2023-02-02T01:01:34.448Z,97973.13
2023-02-02T01:04:03.288Z,97960.19
2023-02-02T01:06:30.764Z,97967.75
2023-02-02T01:08:58.364Z,97950.66
2023-02-02T01:11:26.526Z,97969.97
2023-02-02T01:13:53.973Z,97969.78
2023-02-02T01:16:22.327Z,97969.97
2023-02-02T01:18:50.055Z,97975.09
2023-02-02T01:21:19.210Z,97979.75
2023-02-02T01:23:46.656Z,97958.03
2023-02-02T01:26:14.991Z,97956.94
2023-02-02T01:28:42.774Z,97975.22
2023-02-02T01:31:12.952Z,97978.50
2023-02-02T01:33:40.905Z,97987.78
2023-02-02T01:36:11.324Z,97981.44
2023-02-02T01:38:40.971Z,97969.59
2023-02-02T01:41:08.718Z,97981.38
2023-02-02T01:43:55.870Z,97996.66
2023-02-02T01:46:25.429Z,98013.25
2023-02-02T01:48:57.748Z,98006.13
2023-02-02T01:51:28.535Z,98017.34
2023-02-02T01:54:00.133Z,98005.16
2023-02-02T01:56:31.637Z,97997.09
2023-02-02T01:59:00.543Z,97991.53
2023-02-02T02:01:28.500Z,98009.44
2023-02-02T02:03:57.035Z,97996.47
2023-02-02T02:06:26.075Z,98012.72
2023-02-02T02:08:58.079Z,98031.00
2023-02-02T02:11:25.982Z,98054.59
2023-02-02T02:14:13.471Z,98069.25
2023-02-02T02:16:53.553Z,98059.28
2023-02-02T02:20:04.120Z,98052.38
2023-02-02T02:23:06.197Z,98066.75
2023-02-02T02:26:12.222Z,98044.78
2023-02-02T02:29:21.855Z,98046.88
2023-02-02T02:32:02.146Z,98040.16
2023-02-02T02:34:46.692Z,98029.56
2023-02-02T02:37:20.737Z,98088.50
2023-02-02T02:39:54.707Z,98034.84
2023-02-02T02:42:26.204Z,98096.25
2023-02-02T02:44:56.068Z,98063.91
2023-02-02T02:47:25.313Z,98066.63
2023-02-02T02:49:52.781Z,98096.50
2023-02-02T02:52:20.214Z,98096.44
2023-02-02T02:54:50.988Z,98080.47
2023-02-02T02:57:32.973Z,98088.94
2023-02-02T03:00:11.064Z,98091.44
2023-02-02T03:02:48.876Z,98100.66
2023-02-02T03:05:24.793Z,98106.25
2023-02-02T03:07:59.464Z,98098.38
2023-02-02T03:10:30.738Z,98106.75
2023-02-02T03:12:58.712Z,98101.31
2023-02-02T03:15:26.514Z,98097.78
2023-02-02T03:17:55.787Z,98113.97
2023-02-02T03:20:23.255Z,98115.00
2023-02-02T03:22:50.779Z,98114.94
2023-02-02T03:25:18.698Z,98121.91
2023-02-02T03:27:46.157Z,98119.78
2023-02-02T03:30:14.829Z,98107.69
2023-02-02T03:32:42.643Z,98106.94
2023-02-02T03:35:11.676Z,98118.44
2023-02-02T03:37:39.350Z,98136.63
2023-02-02T03:40:08.399Z,98125.63
2023-02-02T03:42:35.718Z,98124.38
2023-02-02T03:45:03.167Z,98125.47
2023-02-02T03:47:31.148Z,98119.41
2023-02-02T03:49:59.166Z,98122.47
2023-02-02T03:52:28.067Z,98111.50
2023-02-02T03:54:55.526Z,98109.22
2023-02-02T03:57:22.992Z,98106.81
2023-02-02T03:59:50.446Z,98099.88
2023-02-02T04:02:18.001Z,98105.03
2023-02-02T04:04:45.495Z,98103.38
2023-02-02T04:07:12.949Z,98103.22
2023-02-02T04:09:41.728Z,98098.06
2023-02-02T04:12:09.350Z,98099.19
2023-02-02T04:14:36.797Z,98082.84
2023-02-02T04:17:04.301Z,98083.84
2023-02-02T04:19:31.785Z,98074.97
2023-02-02T04:21:59.218Z,98063.00
2023-02-02T04:24:26.914Z,98070.22
2023-02-02T04:26:55.763Z,98057.09
2023-02-02T04:29:23.354Z,98062.84
2023-02-02T04:31:50.932Z,98068.69
2023-02-02T04:34:18.585Z,98071.28
2023-02-02T04:36:46.035Z,98070.59
2023-02-02T04:39:16.102Z,98076.59
2023-02-02T04:41:43.534Z,98084.78
2023-02-02T04:44:15.981Z,98091.47
2023-02-02T04:46:43.673Z,98086.03
2023-02-02T04:49:11.848Z,98091.34
2023-02-02T04:51:39.869Z,98089.50
2023-02-02T04:54:08.278Z,98102.06
2023-02-02T04:56:36.124Z,98105.09
2023-02-02T04:59:03.669Z,98112.63
2023-02-02T05:01:32.515Z,98112.44
2023-02-02T05:04:00.004Z,98113.56
2023-02-02T05:06:27.442Z,98101.69
2023-02-02T05:08:54.918Z,98108.38
2023-02-02T05:11:24.389Z,98105.72
2023-02-02T05:13:54.205Z,98104.75
2023-02-02T05:16:23.403Z,98089.94
2023-02-02T05:18:53.800Z,98097.78
2023-02-02T05:21:21.920Z,98111.28
2023-02-02T05:23:49.818Z,98106.25
2023-02-02T05:26:19.754Z,98111.16
2023-02-02T05:28:48.341Z,98105.31
2023-02-02T05:31:16.161Z,98115.78
2023-02-02T05:33:43.961Z,98099.88
2023-02-02T05:36:13.148Z,98116.22
2023-02-02T05:38:40.666Z,98114.34
2023-02-02T05:41:08.145Z,98130.97
2023-02-02T05:43:35.794Z,98128.91
2023-02-02T05:46:03.484Z,98119.94
2023-02-02T05:48:31.009Z,98126.09
2023-02-02T05:51:04.305Z,98145.75
2023-02-02T05:53:33.908Z,98142.41
2023-02-02T05:56:01.372Z,98155.34
2023-02-02T05:58:28.976Z,98146.84
2023-02-02T06:00:56.988Z,98158.63
2023-02-02T06:03:25.030Z,98160.38
2023-02-02T06:05:52.582Z,98166.50
2023-02-02T06:08:20.139Z,98167.91
2023-02-02T06:10:49.082Z,98175.16
2023-02-02T06:13:16.540Z,98170.25
2023-02-02T06:15:44.093Z,98175.44
2023-02-02T06:18:11.840Z,98181.72
2023-02-02T06:20:39.403Z,98180.91
2023-02-02T06:23:07.405Z,98180.72
2023-02-02T06:25:35.168Z,98184.88
2023-02-02T06:28:04.272Z,98187.53
2023-02-02T06:30:31.795Z,98186.72
2023-02-02T06:33:00.527Z,98184.41
2023-02-02T06:35:28.128Z,98196.06
2023-02-02T06:37:55.580Z,98189.44
2023-02-02T06:40:23.014Z,98196.84
2023-02-02T06:42:56.919Z,98199.84
2023-02-02T06:45:26.211Z,98198.84
2023-02-02T06:47:54.467Z,98200.16
2023-02-02T06:50:21.900Z,98198.03
2023-02-02T06:52:49.758Z,98196.38
2023-02-02T06:55:18.047Z,98198.31
2023-02-02T06:57:45.933Z,98204.69
2023-02-02T07:00:14.764Z,98194.00
2023-02-02T07:02:47.094Z,98206.44
2023-02-02T07:05:14.595Z,98204.34
2023-02-02T07:07:42.105Z,98208.94
2023-02-02T07:10:10.308Z,98208.06
2023-02-02T07:12:57.884Z,98216.31
2023-02-02T07:15:25.878Z,98207.09
2023-02-02T07:17:55.293Z,98210.00
2023-02-02T07:20:22.737Z,98210.19
2023-02-02T07:22:50.272Z,98211.41
2023-02-02T07:25:18.097Z,98210.75
2023-02-02T07:27:46.809Z,98209.34
2023-02-02T07:30:15.955Z,98207.09
2023-02-02T07:32:47.639Z,98197.16
2023-02-02T07:35:16.732Z,98201.25
2023-02-02T07:37:44.507Z,98207.34
2023-02-02T07:40:12.866Z,98195.06
2023-02-02T07:42:40.365Z,98195.78
2023-02-02T07:45:27.308Z,98199.59
2023-02-02T07:47:58.980Z,98202.09
2023-02-02T07:50:30.223Z,98190.78
2023-02-02T07:52:59.569Z,98197.38
2023-02-02T07:55:27.188Z,98195.13
2023-02-02T07:57:55.363Z,98207.09
2023-02-02T08:00:24.723Z,98202.88
2023-02-02T08:02:52.820Z,98210.19
2023-02-02T08:05:22.611Z,98205.56
2023-02-02T08:07:51.680Z,98208.91
2023-02-02T08:10:19.350Z,98209.91
2023-02-02T08:12:46.849Z,98203.06
2023-02-02T08:15:14.309Z,98201.25
2023-02-02T08:17:45.796Z,98200.84
2023-02-02T08:20:14.423Z,98198.47
2023-02-02T08:22:41.987Z,98199.59
2023-02-02T08:25:11.132Z,98189.28
2023-02-02T08:27:38.577Z,98196.81
2023-02-02T08:30:06.750Z,98199.84
2023-02-02T08:32:34.203Z,98184.44
2023-02-02T08:35:01.633Z,98185.53
2023-02-02T08:37:29.298Z,98191.38
2023-02-02T08:39:56.804Z,98194.03
2023-02-02T08:42:25.898Z,98189.63
2023-02-02T08:45:59.731Z,98198.44
2023-02-02T08:47:40.680Z,98192.56
2023-02-02T08:50:08.780Z,98199.91
2023-02-02T08:52:36.277Z,98196.41
2023-02-02T08:55:04.278Z,98199.28
2023-02-02T08:57:34.368Z,98202.78
2023-02-02T09:00:01.831Z,98202.53
2023-02-02T09:02:29.336Z,98204.88
2023-02-02T09:04:56.806Z,98202.97
2023-02-02T09:07:24.358Z,98200.28
2023-02-02T09:09:53.881Z,98198.19
2023-02-02T09:12:21.311Z,98206.97
2023-02-02T09:14:50.273Z,98203.84
2023-02-02T09:17:17.588Z,98209.03
2023-02-02T09:19:45.075Z,98209.44
2023-02-02T09:22:12.514Z,98205.50
2023-02-02T09:24:39.956Z,98215.72
2023-02-02T09:27:07.467Z,98196.81
2023-02-02T09:29:34.989Z,98199.88
2023-02-02T09:32:03.940Z,98202.69
2023-02-02T09:34:31.391Z,98198.91
2023-02-02T09:36:58.827Z,98207.09
2023-02-02T09:39:26.407Z,98199.28
2023-02-02T09:42:33.725Z,98208.03
2023-02-02T09:45:06.909Z,98205.16
2023-02-02T09:47:54.740Z,98218.13
2023-02-02T09:50:35.278Z,98206.44
2023-02-02T09:53:07.909Z,98214.31
2023-02-02T09:55:38.761Z,98220.88
2023-02-02T09:58:14.532Z,98233.19
2023-02-02T10:00:46.574Z,98236.81
2023-02-02T10:03:20.238Z,98222.84
2023-02-02T10:05:54.919Z,98228.53
2023-02-02T10:08:35.083Z,98231.59
2023-02-02T10:11:24.466Z,98229.69
2023-02-02T10:13:55.591Z,98227.13
2023-02-02T10:16:25.204Z,98232.13
2023-02-02T10:19:00.849Z,98226.81
2023-02-02T10:21:36.730Z,98232.22
2023-02-02T10:24:05.179Z,98235.72
2023-02-02T10:26:39.425Z,98224.47
2023-02-02T10:29:13.728Z,98222.66
2023-02-02T10:31:49.079Z,98221.50
2023-02-02T10:34:24.730Z,98220.53
2023-02-02T10:37:02.946Z,98218.56
2023-02-02T10:39:45.775Z,98227.75
2023-02-02T10:42:23.221Z,98227.28
2023-02-02T10:44:55.612Z,98220.28
2023-02-02T10:47:27.045Z,98228.66
2023-02-02T10:50:08.434Z,98226.97
2023-02-02T10:52:36.858Z,98226.44
2023-02-02T10:55:15.701Z,98225.16
2023-02-02T10:58:01.633Z,98218.41
2023-02-02T11:00:35.723Z,98216.66
2023-02-02T11:03:04.730Z,98222.72
2023-02-02T11:05:51.905Z,98215.06
2023-02-02T11:08:23.003Z,98229.66
2023-02-02T11:10:54.207Z,98216.22
2023-02-02T11:13:28.567Z,98219.38
2023-02-02T11:16:22.488Z,98214.41
2023-02-02T11:18:50.441Z,98215.13
2023-02-02T11:21:22.980Z,98217.66
2023-02-02T11:23:56.196Z,98213.44
2023-02-02T11:26:25.306Z,98216.88
2023-02-02T11:28:55.104Z,98218.38
2023-02-02T11:31:33.931Z,98223.75
2023-02-02T11:34:10.668Z,98218.31
2023-02-02T11:36:39.465Z,98221.09
2023-02-02T11:39:17.545Z,98230.63
2023-02-02T11:41:45.229Z,98228.63
2023-02-02T11:44:25.362Z,98233.28
2023-02-02T11:46:53.679Z,98225.00
2023-02-02T11:49:23.928Z,98225.44
2023-02-02T11:52:00.976Z,98231.66
2023-02-02T11:54:31.268Z,98227.78
2023-02-02T11:57:01.894Z,98227.78
2023-02-02T11:59:32.586Z,98218.44
2023-02-02T12:02:25.358Z,98227.25
2023-02-02T12:04:54.931Z,98224.25
2023-02-02T12:07:29.107Z,98222.25
2023-02-02T12:10:01.160Z,98230.25
2023-02-02T12:12:42.956Z,98231.09
2023-02-02T12:15:23.820Z,98240.22
2023-02-02T12:17:56.900Z,98233.44
2023-02-02T12:20:36.485Z,98244.59
2023-02-02T12:23:23.591Z,98229.94
2023-02-02T12:25:59.411Z,98220.81
2023-02-02T12:28:45.034Z,98218.16
2023-02-02T12:31:19.587Z,98230.75
2023-02-02T12:33:54.274Z,98240.13
2023-02-02T12:36:37.451Z,98244.13
2023-02-02T12:39:37.859Z,98250.44
2023-02-02T12:42:19.313Z,98260.41
2023-02-02T12:45:08.818Z,98247.78
2023-02-02T12:47:46.011Z,98254.78
2023-02-02T12:50:26.055Z,98255.31
2023-02-02T12:53:08.899Z,98254.63
2023-02-02T12:55:45.507Z,98248.47
2023-02-02T12:58:24.783Z,98264.44
2023-02-02T13:01:07.636Z,98255.63
2023-02-02T13:03:49.586Z,98272.25
2023-02-02T13:06:45.351Z,98274.25
2023-02-02T13:09:19.650Z,98268.41
2023-02-02T13:11:54.839Z,98273.88
2023-02-02T13:14:27.092Z,98287.03
2023-02-02T13:17:00.315Z,98283.66
2023-02-02T13:19:35.269Z,98285.78
2023-02-02T13:22:05.544Z,98283.31
2023-02-02T13:24:38.075Z,98278.81
2023-02-02T13:27:11.761Z,98285.97
2023-02-02T13:29:48.363Z,98284.59
2023-02-02T13:32:22.571Z,98281.50
2023-02-02T13:34:56.209Z,98280.66
2023-02-02T13:37:32.716Z,98294.41
2023-02-02T13:40:03.885Z,98305.19
2023-02-02T13:42:41.915Z,98298.34
2023-02-02T13:45:28.856Z,98299.19
2023-02-02T13:48:06.729Z,98299.19
2023-02-02T13:50:47.240Z,98306.03
2023-02-02T13:53:39.669Z,98311.03
2023-02-02T13:56:20.921Z,98313.03
2023-02-02T13:58:59.998Z,98314.44
2023-02-02T14:01:28.221Z,98324.78
2023-02-02T14:03:58.176Z,98325.09
2023-02-02T14:06:27.355Z,98327.22
2023-02-02T14:08:57.645Z,98338.00
2023-02-02T14:11:31.894Z,98329.88
2023-02-02T14:14:23.570Z,98337.84
2023-02-02T14:16:53.255Z,98343.03
2023-02-02T14:19:53.433Z,98344.03
2023-02-02T14:22:40.209Z,98351.59
2023-02-02T14:25:45.086Z,98353.41
2023-02-02T14:28:14.379Z,98356.53
2023-02-02T14:30:43.201Z,98357.22
2023-02-02T14:33:37.960Z,98353.41
2023-02-02T14:36:06.949Z,98356.81
2023-02-02T14:38:59.800Z,98359.34
2023-02-02T14:42:22.559Z,98358.50
2023-02-02T14:45:20.587Z,98362.84
2023-02-02T14:47:52.756Z,98367.16
2023-02-02T14:50:26.127Z,98369.16
2023-02-02T14:53:00.620Z,98368.16
2023-02-02T14:55:28.777Z,98358.50
2023-02-02T14:57:58.156Z,98366.88
2023-02-02T15:00:28.931Z,98373.03
2023-02-02T15:02:57.859Z,98379.34
2023-02-02T15:05:46.123Z,98385.50
2023-02-02T15:08:21.800Z,98384.13
2023-02-02T15:11:27.889Z,98390.28
2023-02-02T15:14:06.937Z,98405.41
2023-02-02T15:16:37.712Z,98404.41
2023-02-02T15:19:18.487Z,98404.56
2023-02-02T15:21:50.072Z,98412.09
2023-02-02T15:24:23.962Z,98409.03
2023-02-02T15:26:54.462Z,98411.00
2023-02-02T15:29:36.172Z,98414.50
2023-02-02T15:32:07.100Z,98427.66
2023-02-02T15:34:41.190Z,98424.47
2023-02-02T15:37:14.291Z,98435.75
2023-02-02T15:39:43.761Z,98442.78
2023-02-02T15:42:34.426Z,98455.22
2023-02-02T15:45:01.942Z,98461.53
2023-02-02T15:47:33.948Z,98472.16
2023-02-02T15:50:05.180Z,98480.13
2023-02-02T15:52:35.454Z,98478.31
2023-02-02T15:55:03.348Z,98482.66
2023-02-02T15:57:33.847Z,98487.31
2023-02-02T16:00:03.564Z,98493.44
2023-02-02T16:02:38.526Z,98494.75
2023-02-02T16:05:25.971Z,98497.53
2023-02-02T16:08:05.026Z,98507.47
2023-02-02T16:10:34.121Z,98512.78
2023-02-02T16:13:01.884Z,98517.53
2023-02-02T16:15:31.658Z,98528.53
2023-02-02T16:18:00.622Z,98519.22
2023-02-02T16:20:30.618Z,98521.41
2023-02-02T16:23:01.792Z,98520.69
2023-02-02T16:25:33.279Z,98527.81
2023-02-02T16:28:01.614Z,98531.28
2023-02-02T16:30:31.725Z,98525.69
2023-02-02T16:32:59.377Z,98535.47
2023-02-02T16:35:36.119Z,98536.88
2023-02-02T16:38:15.035Z,98550.28
2023-02-02T16:40:42.665Z,98542.31
2023-02-02T16:43:18.392Z,98554.22
2023-02-02T16:45:49.042Z,98548.06
2023-02-02T16:48:32.889Z,98562.31
2023-02-02T16:51:26.726Z,98564.00
2023-02-02T16:54:03.281Z,98576.66
2023-02-02T16:56:34.959Z,98586.88
2023-02-02T16:59:06.648Z,98579.56
2023-02-02T17:01:39.353Z,98584.88
2023-02-02T17:04:17.041Z,98593.09
2023-02-02T17:06:52.718Z,98603.53
2023-02-02T17:09:34.344Z,98605.19
2023-02-02T17:12:09.363Z,98605.41
2023-02-02T17:14:51.979Z,98620.03
2023-02-02T17:17:19.730Z,98618.47
2023-02-02T17:19:47.848Z,98627.84
2023-02-02T17:22:18.537Z,98624.72
2023-02-02T17:24:48.032Z,98630.34
2023-02-02T17:27:18.465Z,98623.50
2023-02-02T17:29:46.341Z,98632.59
2023-02-02T17:32:14.518Z,98627.16
2023-02-02T17:34:42.008Z,98638.34
2023-02-02T17:37:09.691Z,98634.69
2023-02-02T17:39:38.818Z,98642.69
2023-02-02T17:42:07.434Z,98648.25
2023-02-02T17:44:34.889Z,98647.16
2023-02-02T17:47:02.568Z,98647.16
2023-02-02T17:49:30.049Z,98652.47
2023-02-02T17:51:57.575Z,98657.63
2023-02-02T17:54:25.184Z,98657.50
2023-02-02T17:56:53.977Z,98657.63
2023-02-02T17:59:21.413Z,98659.47
2023-02-02T18:01:49.181Z,98662.13
2023-02-02T18:04:16.747Z,98662.38
2023-02-02T18:06:44.276Z,98670.38
2023-02-02T18:09:11.823Z,98662.13
2023-02-02T18:11:41.491Z,98662.25
2023-02-02T18:14:11.491Z,98665.22
2023-02-02T18:16:38.838Z,98670.38
2023-02-02T18:19:06.135Z,98664.38
2023-02-02T18:21:33.613Z,98657.91
2023-02-02T18:24:01.281Z,98662.69
2023-02-02T18:26:28.826Z,98666.44
2023-02-02T18:28:56.335Z,98675.44
2023-02-02T18:31:25.295Z,98669.41
2023-02-02T18:33:53.713Z,98682.97
2023-02-02T18:36:23.499Z,98683.94
2023-02-02T18:38:53.668Z,98680.31
2023-02-02T18:41:21.960Z,98670.53
2023-02-02T18:43:49.675Z,98669.53
2023-02-02T18:46:17.954Z,98672.06
2023-02-02T18:48:46.812Z,98675.44
2023-02-02T18:51:16.585Z,98670.25
2023-02-02T18:53:44.601Z,98674.72
2023-02-02T18:56:13.430Z,98680.75
2023-02-02T18:58:41.791Z,98680.03
2023-02-02T19:01:10.516Z,98687.16
2023-02-02T19:03:39.261Z,98690.09
2023-02-02T19:06:27.255Z,98686.72
2023-02-02T19:08:55.272Z,98687.31
2023-02-02T19:11:26.571Z,98693.75
2023-02-02T19:13:54.574Z,98692.63
2023-02-02T19:16:25.846Z,98694.88
2023-02-02T19:18:57.186Z,98684.91
2023-02-02T19:21:30.001Z,98692.06
2023-02-02T19:23:58.070Z,98692.34
2023-02-02T19:26:27.548Z,98698.22
2023-02-02T19:28:59.042Z,98688.00
2023-02-02T19:31:26.608Z,98701.44
2023-02-02T19:33:55.427Z,98693.59
2023-02-02T19:36:25.227Z,98692.63
2023-02-02T19:39:05.124Z,98697.22
2023-02-02T19:41:33.233Z,98690.25
2023-02-02T19:44:07.162Z,98698.78
2023-02-02T19:46:43.172Z,98686.88
2023-02-02T19:49:14.323Z,98684.91
2023-02-02T19:51:44.071Z,98689.84
2023-02-02T19:54:28.037Z,98688.84
2023-02-02T19:56:58.356Z,98693.31
2023-02-02T19:59:28.731Z,98690.94
2023-02-02T20:01:56.285Z,98698.63
2023-02-02T20:04:24.285Z,98698.38
2023-02-02T20:06:58.922Z,98699.22
2023-02-02T20:09:34.449Z,98692.75
2023-02-02T20:12:02.065Z,98698.38
2023-02-02T20:14:34.412Z,98701.72
2023-02-02T20:17:05.745Z,98698.22
2023-02-02T20:19:36.226Z,98706.91
2023-02-02T20:22:04.643Z,98708.72
2023-02-02T20:24:36.942Z,98699.91
2023-02-02T20:27:14.645Z,98696.41
2023-02-02T20:29:44.691Z,98712.06
2023-02-02T20:32:21.039Z,98709.84
2023-02-02T20:34:50.586Z,98701.72
2023-02-02T20:37:23.398Z,98710.41
2023-02-02T20:39:55.449Z,98708.00
2023-02-02T20:42:23.306Z,98709.00
2023-02-02T20:44:51.702Z,98710.41
2023-02-02T20:47:19.859Z,98704.25
2023-02-02T20:49:47.495Z,98711.50
2023-02-02T20:52:21.831Z,98722.28
2023-02-02T20:54:49.361Z,98716.69
2023-02-02T20:57:18.638Z,98714.88
2023-02-02T20:59:46.147Z,98714.31
2023-02-02T21:02:18.923Z,98703.28
2023-02-02T21:04:47.616Z,98719.34
2023-02-02T21:07:16.697Z,98718.25
2023-02-02T21:09:44.221Z,98724.41
2023-02-02T21:12:11.731Z,98721.56
2023-02-02T21:14:40.886Z,98729.00
2023-02-02T21:17:15.392Z,98730.00
2023-02-02T21:19:43.497Z,98741.16
2023-02-02T21:22:11.579Z,98742.00
2023-02-02T21:24:39.312Z,98738.78
2023-02-02T21:27:07.458Z,98739.63
2023-02-02T21:29:34.987Z,98750.25
2023-02-02T21:32:04.862Z,98736.00
2023-02-02T21:34:33.311Z,98739.34
2023-02-02T21:37:00.999Z,98735.03
2023-02-02T21:39:31.408Z,98730.69
2023-02-02T21:42:12.216Z,98724.81
2023-02-02T21:44:42.131Z,98729.97
2023-02-02T21:47:33.224Z,98727.59
2023-02-02T21:50:12.439Z,98731.22
2023-02-02T21:52:40.111Z,98722.28
2023-02-02T21:55:29.720Z,98730.53
2023-02-02T21:57:59.123Z,98724.66
2023-02-02T22:00:30.813Z,98729.84
2023-02-02T22:03:00.196Z,98723.41
2023-02-02T22:05:34.581Z,98729.28
2023-02-02T22:08:08.681Z,98729.41
2023-02-02T22:10:38.752Z,98723.41
2023-02-02T22:13:16.639Z,98719.06
2023-02-02T22:15:45.952Z,98726.06
2023-02-02T22:18:18.015Z,98729.41
2023-02-02T22:20:47.334Z,98727.16
2023-02-02T22:23:17.049Z,98730.38
2023-02-02T22:25:45.501Z,98730.94
2023-02-02T22:28:21.135Z,98720.44
2023-02-02T22:30:50.149Z,98726.34
2023-02-02T22:33:19.681Z,98726.06
2023-02-02T22:35:47.385Z,98717.53
2023-02-02T22:38:18.215Z,98722.84
2023-02-02T22:40:45.736Z,98721.88
2023-02-02T22:43:16.073Z,98719.75
2023-02-02T22:45:43.750Z,98723.53
2023-02-02T22:48:11.995Z,98714.72
2023-02-02T22:50:41.444Z,98730.81
2023-02-02T22:53:08.944Z,98726.75
2023-02-02T22:55:36.561Z,98731.66
2023-02-02T22:58:04.034Z,98726.19
2023-02-02T23:00:33.186Z,98738.50
2023-02-02T23:03:01.103Z,98720.91
2023-02-02T23:05:29.092Z,98719.34
2023-02-02T23:07:57.886Z,98724.66
2023-02-02T23:10:29.459Z,98724.09
2023-02-02T23:12:58.435Z,98726.06
2023-02-02T23:15:26.381Z,98731.78
2023-02-02T23:17:54.663Z,98744.66
2023-02-02T23:20:22.592Z,98735.16
2023-02-02T23:22:50.156Z,98737.25
2023-02-02T23:25:19.599Z,98747.72
2023-02-02T23:27:47.151Z,98742.00
2023-02-02T23:30:15.399Z,98741.00
2023-02-02T23:32:43.158Z,98746.59
2023-02-02T23:35:11.238Z,98740.47
2023-02-02T23:37:39.006Z,98735.97
2023-02-02T23:40:07.677Z,98740.44
2023-02-02T23:42:37.438Z,98741.44
2023-02-02T23:45:05.817Z,98735.13
2023-02-02T23:47:33.870Z,98737.78
2023-02-02T23:50:04.166Z,98746.59
2023-02-02T23:52:32.310Z,98744.09
2023-02-02T23:55:00.822Z,98744.66
2023-02-02T23:57:28.578Z,98747.28
2023-02-02T23:59:57.415Z,98755.13
